createdAt,value
2018-12-27T00:00:00.322Z,3.80
2018-12-27T00:02:28.049Z,3.80
2018-12-27T00:04:55.752Z,3.80
2018-12-27T00:07:23.449Z,3.80
2018-12-27T00:09:51.169Z,3.70
2018-12-27T00:12:18.812Z,3.70
2018-12-27T00:14:46.502Z,3.60
2018-12-27T00:17:14.226Z,3.60
2018-12-27T00:19:41.941Z,3.60
2018-12-27T00:22:09.685Z,3.50
2018-12-27T00:24:37.812Z,3.50
2018-12-27T00:27:05.489Z,3.50
2018-12-27T00:29:33.191Z,3.50
2018-12-27T00:32:00.918Z,3.40
2018-12-27T00:34:28.610Z,3.40
2018-12-27T00:36:56.311Z,3.40
2018-12-27T00:39:24.042Z,3.40
2018-12-27T00:41:51.755Z,3.30
2018-12-27T00:44:19.449Z,3.30
2018-12-27T00:46:47.176Z,3.30
2018-12-27T00:49:14.873Z,3.20
2018-12-27T00:51:42.581Z,3.20
2018-12-27T00:54:10.309Z,3.30
2018-12-27T00:56:38.009Z,3.30
2018-12-27T00:59:05.706Z,3.30
2018-12-27T01:01:33.440Z,3.20
2018-12-27T01:04:01.152Z,3.20
2018-12-27T01:06:28.941Z,3.20
2018-12-27T01:08:56.682Z,3.20
2018-12-27T01:11:24.395Z,3.20
2018-12-27T01:13:52.130Z,3.20
2018-12-27T01:16:19.861Z,3.20
2018-12-27T01:18:47.555Z,3.20
2018-12-27T01:21:15.286Z,3.10
2018-12-27T01:23:43.161Z,3.10
2018-12-27T01:26:10.939Z,3.10
2018-12-27T01:28:38.581Z,3.10
2018-12-27T01:31:06.372Z,3.10
2018-12-27T01:33:34.061Z,3.10
2018-12-27T01:36:01.770Z,3.10
2018-12-27T01:38:29.482Z,3.10
2018-12-27T01:40:57.177Z,3.10
2018-12-27T01:43:24.880Z,3.10
2018-12-27T01:45:52.622Z,3.10
2018-12-27T01:48:20.345Z,3.10
2018-12-27T01:50:48.038Z,3.00
2018-12-27T01:53:15.759Z,3.00
2018-12-27T01:55:43.537Z,3.00
2018-12-27T01:58:11.230Z,2.90
2018-12-27T02:00:39.032Z,2.80
2018-12-27T02:03:06.737Z,2.80
2018-12-27T02:05:34.433Z,2.80
2018-12-27T02:08:02.160Z,2.80
2018-12-27T02:10:29.854Z,2.80
2018-12-27T02:12:57.573Z,2.90
2018-12-27T02:15:25.299Z,2.80
2018-12-27T02:17:53.001Z,2.80
2018-12-27T02:20:21.547Z,2.80
2018-12-27T02:22:49.365Z,2.80
2018-12-27T02:25:17.081Z,2.80
2018-12-27T02:27:44.945Z,2.80
2018-12-27T02:30:12.661Z,2.80
2018-12-27T02:32:40.354Z,2.80
2018-12-27T02:35:08.050Z,2.80
2018-12-27T02:37:35.775Z,2.80
2018-12-27T02:40:03.477Z,2.70
2018-12-27T02:42:31.178Z,2.70
2018-12-27T02:44:58.885Z,2.70
2018-12-27T02:47:26.577Z,2.70
2018-12-27T02:49:54.282Z,2.60
2018-12-27T02:52:22.014Z,2.70
2018-12-27T02:54:49.709Z,2.70
2018-12-27T02:57:17.450Z,2.70
2018-12-27T02:59:45.166Z,2.70
2018-12-27T03:02:12.877Z,2.60
2018-12-27T03:04:40.573Z,2.60
2018-12-27T03:07:08.301Z,2.60
2018-12-27T03:09:36.012Z,2.60
2018-12-27T03:12:03.701Z,2.70
2018-12-27T03:14:31.426Z,2.60
2018-12-27T03:16:59.220Z,2.70
2018-12-27T03:19:26.924Z,2.70
2018-12-27T03:21:54.650Z,2.70
2018-12-27T03:24:22.385Z,2.70
2018-12-27T03:26:50.134Z,2.60
2018-12-27T03:29:17.871Z,2.60
2018-12-27T03:31:45.590Z,2.50
2018-12-27T03:34:13.302Z,2.50
2018-12-27T03:36:41.022Z,2.50
2018-12-27T03:39:08.731Z,2.50
2018-12-27T03:41:36.518Z,2.50
2018-12-27T03:44:04.253Z,2.50
2018-12-27T03:46:31.953Z,2.40
2018-12-27T03:48:59.654Z,2.40
2018-12-27T03:51:27.371Z,2.40
2018-12-27T03:53:55.056Z,2.40
2018-12-27T03:56:22.777Z,2.40
2018-12-27T03:58:50.598Z,2.40
2018-12-27T04:01:18.299Z,2.40
2018-12-27T04:03:46.005Z,2.40
2018-12-27T04:06:13.843Z,2.40
2018-12-27T04:08:41.537Z,2.40
2018-12-27T04:11:09.266Z,2.30
2018-12-27T04:13:36.990Z,2.20
2018-12-27T04:16:04.685Z,2.20
2018-12-27T04:18:32.488Z,2.20
2018-12-27T04:21:00.217Z,2.20
2018-12-27T04:23:27.874Z,2.20
2018-12-27T04:25:55.607Z,2.20
2018-12-27T04:28:23.510Z,2.30
2018-12-27T04:30:51.169Z,2.30
2018-12-27T04:33:18.957Z,2.40
2018-12-27T04:35:47.994Z,2.40
2018-12-27T04:38:15.724Z,2.40
2018-12-27T04:40:43.431Z,2.40
2018-12-27T04:43:11.142Z,2.40
2018-12-27T04:45:38.825Z,2.40
2018-12-27T04:48:06.580Z,2.40
2018-12-27T04:50:34.301Z,2.30
2018-12-27T04:53:01.998Z,2.30
2018-12-27T04:55:29.818Z,2.30
2018-12-27T04:57:57.464Z,2.30
2018-12-27T05:00:25.201Z,2.30
2018-12-27T05:02:52.907Z,2.30
2018-12-27T05:05:20.629Z,2.30
2018-12-27T05:07:48.325Z,2.30
2018-12-27T05:10:16.020Z,2.20
2018-12-27T05:12:43.790Z,2.20
2018-12-27T05:15:11.509Z,2.20
2018-12-27T05:17:39.213Z,2.20
2018-12-27T05:20:06.925Z,2.20
2018-12-27T05:22:34.623Z,2.20
2018-12-27T05:25:02.326Z,2.20
2018-12-27T05:27:30.061Z,2.20
2018-12-27T05:29:57.751Z,2.20
2018-12-27T05:32:25.482Z,2.10
2018-12-27T05:34:53.219Z,2.10
2018-12-27T05:37:20.907Z,2.10
2018-12-27T05:39:48.590Z,2.10
2018-12-27T05:42:16.306Z,2.10
2018-12-27T05:44:43.998Z,2.10
2018-12-27T05:47:11.698Z,2.10
2018-12-27T05:49:39.422Z,2.20
2018-12-27T05:52:07.109Z,2.20
2018-12-27T05:54:34.826Z,2.20
2018-12-27T05:57:02.573Z,2.20
2018-12-27T05:59:30.269Z,2.20
2018-12-27T06:01:58.087Z,2.20
2018-12-27T06:04:25.721Z,2.20
2018-12-27T06:06:53.426Z,2.20
2018-12-27T06:09:21.122Z,2.20
2018-12-27T06:11:48.833Z,2.20
2018-12-27T06:14:16.557Z,2.20
2018-12-27T06:16:44.255Z,2.20
2018-12-27T06:19:12.084Z,2.10
2018-12-27T06:21:39.789Z,2.10
2018-12-27T06:24:07.533Z,2.10
2018-12-27T06:26:35.246Z,2.10
2018-12-27T06:29:02.948Z,2.10
2018-12-27T06:31:30.661Z,2.10
2018-12-27T06:33:58.404Z,2.10
2018-12-27T06:36:26.090Z,2.10
2018-12-27T06:38:53.794Z,2.10
2018-12-27T06:41:21.516Z,2.00
2018-12-27T06:43:49.210Z,2.00
2018-12-27T06:46:16.921Z,1.90
2018-12-27T06:48:44.664Z,1.80
2018-12-27T06:51:12.365Z,1.80
2018-12-27T06:53:40.057Z,1.90
2018-12-27T06:56:07.783Z,1.90
2018-12-27T06:58:37.928Z,1.90
2018-12-27T07:01:05.093Z,1.90
2018-12-27T07:03:32.849Z,1.90
2018-12-27T07:06:00.625Z,1.90
2018-12-27T07:08:28.317Z,1.90
2018-12-27T07:10:56.026Z,1.80
2018-12-27T07:13:23.726Z,1.90
2018-12-27T07:15:51.437Z,1.90
2018-12-27T07:18:19.172Z,1.80
2018-12-27T07:20:46.884Z,1.80
2018-12-27T07:23:14.577Z,1.80
2018-12-27T07:25:42.337Z,1.80
2018-12-27T07:28:10.105Z,1.80
2018-12-27T07:30:37.910Z,1.80
2018-12-27T07:33:05.667Z,1.70
2018-12-27T07:35:33.744Z,1.70
2018-12-27T07:38:01.408Z,1.80
2018-12-27T07:40:29.241Z,1.70
2018-12-27T07:42:56.915Z,1.80
2018-12-27T07:45:24.623Z,1.90
2018-12-27T07:47:52.345Z,1.90
2018-12-27T07:50:20.057Z,2.00
2018-12-27T07:52:47.794Z,2.10
2018-12-27T07:55:15.505Z,2.10
2018-12-27T07:57:43.208Z,2.20
2018-12-27T08:00:10.920Z,2.30
2018-12-27T08:02:38.635Z,2.40
2018-12-27T08:05:07.729Z,2.50
2018-12-27T08:07:35.401Z,2.50
2018-12-27T08:10:03.598Z,2.60
2018-12-27T08:12:31.380Z,2.70
2018-12-27T08:14:59.106Z,2.90
2018-12-27T08:17:26.827Z,2.90
2018-12-27T08:19:54.533Z,3.00
2018-12-27T08:22:22.563Z,3.10
2018-12-27T08:24:50.233Z,3.20
2018-12-27T08:27:17.954Z,3.20
2018-12-27T08:29:45.645Z,3.30
2018-12-27T08:32:13.366Z,3.40
2018-12-27T08:34:41.089Z,3.40
2018-12-27T08:37:08.790Z,3.50
2018-12-27T08:39:36.587Z,3.60
2018-12-27T08:42:04.268Z,3.70
2018-12-27T08:44:32.014Z,3.80
2018-12-27T08:46:59.741Z,4.00
2018-12-27T08:49:27.445Z,4.10
2018-12-27T08:51:55.169Z,4.20
2018-12-27T08:54:22.896Z,4.30
2018-12-27T08:56:50.604Z,4.30
2018-12-27T08:59:18.297Z,4.30
2018-12-27T09:01:46.026Z,4.40
2018-12-27T09:04:13.750Z,4.40
2018-12-27T09:06:41.460Z,4.50
2018-12-27T09:09:09.978Z,4.50
2018-12-27T09:11:37.705Z,4.60
2018-12-27T09:14:05.385Z,4.60
2018-12-27T09:16:33.102Z,4.70
2018-12-27T09:19:00.871Z,4.80
2018-12-27T09:21:28.570Z,4.80
2018-12-27T09:23:56.285Z,4.80
2018-12-27T09:26:24.018Z,4.90
2018-12-27T09:28:51.720Z,5.00
2018-12-27T09:31:19.441Z,5.10
2018-12-27T09:33:47.140Z,5.20
2018-12-27T09:36:14.894Z,5.30
2018-12-27T09:38:42.612Z,5.30
2018-12-27T09:41:11.629Z,5.40
2018-12-27T09:43:39.337Z,5.50
2018-12-27T09:46:07.485Z,5.60
2018-12-27T09:48:35.205Z,5.60
2018-12-27T09:51:02.924Z,5.70
2018-12-27T09:53:30.632Z,5.80
2018-12-27T09:55:58.333Z,5.90
2018-12-27T09:58:26.043Z,6.00
2018-12-27T10:00:53.773Z,6.10
2018-12-27T10:03:21.478Z,6.20
2018-12-27T10:05:49.285Z,6.20
2018-12-27T10:08:17.020Z,6.30
2018-12-27T10:10:44.731Z,6.40
2018-12-27T10:13:12.569Z,6.50
2018-12-27T10:15:40.348Z,6.60
2018-12-27T10:18:08.050Z,6.70
2018-12-27T10:20:35.754Z,6.70
2018-12-27T10:23:03.485Z,6.80
2018-12-27T10:25:31.191Z,6.90
2018-12-27T10:27:58.996Z,7.00
2018-12-27T10:30:26.665Z,7.10
2018-12-27T10:32:54.383Z,7.10
2018-12-27T10:35:23.384Z,7.20
2018-12-27T10:37:51.133Z,7.20
2018-12-27T10:40:18.867Z,7.20
2018-12-27T10:42:46.637Z,7.30
2018-12-27T10:45:14.406Z,7.40
2018-12-27T10:47:42.109Z,7.40
2018-12-27T10:50:09.872Z,7.60
2018-12-27T10:52:37.618Z,7.60
2018-12-27T10:55:05.792Z,7.70
2018-12-27T10:57:34.896Z,7.70
2018-12-27T11:00:02.848Z,7.80
2018-12-27T11:02:30.541Z,7.90
2018-12-27T11:04:58.245Z,8.00
2018-12-27T11:07:25.962Z,8.10
2018-12-27T11:09:53.690Z,8.10
2018-12-27T11:12:21.389Z,8.20
2018-12-27T11:14:49.125Z,8.30
2018-12-27T11:17:16.885Z,8.40
2018-12-27T11:19:44.580Z,8.40
2018-12-27T11:22:12.313Z,8.50
2018-12-27T11:24:40.014Z,8.50
2018-12-27T11:27:07.841Z,8.60
2018-12-27T11:29:35.569Z,8.60
2018-12-27T11:32:03.378Z,8.70
2018-12-27T11:34:31.115Z,8.80
2018-12-27T11:36:58.861Z,8.80
2018-12-27T11:39:26.593Z,8.90
2018-12-27T11:41:54.293Z,9.00
2018-12-27T11:44:22.014Z,9.00
2018-12-27T11:46:49.721Z,9.10
2018-12-27T11:49:17.413Z,9.10
2018-12-27T11:51:45.157Z,9.20
2018-12-27T11:54:12.849Z,9.30
2018-12-27T11:56:40.550Z,9.30
2018-12-27T11:59:08.273Z,9.40
2018-12-27T12:01:35.987Z,9.40
2018-12-27T12:04:03.684Z,9.40
2018-12-27T12:06:31.414Z,9.50
2018-12-27T12:08:59.133Z,9.50
2018-12-27T12:11:26.872Z,9.60
2018-12-27T12:13:54.626Z,9.70
2018-12-27T12:16:22.341Z,9.80
2018-12-27T12:18:50.046Z,9.80
2018-12-27T12:21:17.780Z,9.90
2018-12-27T12:23:45.477Z,9.90
2018-12-27T12:26:13.195Z,10.00
2018-12-27T12:28:41.003Z,10.10
2018-12-27T12:31:08.636Z,10.10
2018-12-27T12:33:36.354Z,10.20
2018-12-27T12:36:10.346Z,10.20
2018-12-27T12:38:33.601Z,10.30
2018-12-27T12:41:01.323Z,10.30
2018-12-27T12:43:29.037Z,10.40
2018-12-27T12:45:56.797Z,10.50
2018-12-27T12:48:24.635Z,10.50
2018-12-27T12:50:52.398Z,10.60
2018-12-27T12:53:20.181Z,10.60
2018-12-27T12:55:47.893Z,10.60
2018-12-27T12:58:15.591Z,10.70
2018-12-27T13:00:43.319Z,10.80
2018-12-27T13:03:11.012Z,10.80
2018-12-27T13:05:38.749Z,10.90
2018-12-27T13:08:06.461Z,10.90
2018-12-27T13:10:34.185Z,11.00
2018-12-27T13:13:01.909Z,11.10
2018-12-27T13:15:29.649Z,11.10
2018-12-27T13:17:57.345Z,11.10
2018-12-27T13:20:25.078Z,11.00
2018-12-27T13:22:52.768Z,11.00
2018-12-27T13:25:20.487Z,10.90
2018-12-27T13:27:48.244Z,10.90
2018-12-27T13:30:15.988Z,10.90
2018-12-27T13:32:45.683Z,11.00
2018-12-27T13:35:14.796Z,11.00
2018-12-27T13:37:42.476Z,11.00
2018-12-27T13:40:10.189Z,11.00
2018-12-27T13:42:37.946Z,11.00
2018-12-27T13:45:06.520Z,11.10
2018-12-27T13:47:34.236Z,11.10
2018-12-27T13:50:01.961Z,11.10
2018-12-27T13:52:29.654Z,11.10
2018-12-27T13:54:57.349Z,11.00
2018-12-27T13:57:25.092Z,11.00
2018-12-27T13:59:52.789Z,10.90
2018-12-27T14:02:20.515Z,10.90
2018-12-27T14:04:48.237Z,10.90
2018-12-27T14:07:16.132Z,10.90
2018-12-27T14:09:45.617Z,11.00
2018-12-27T14:12:13.345Z,10.90
2018-12-27T14:14:41.041Z,10.90
2018-12-27T14:17:08.751Z,11.00
2018-12-27T14:19:36.478Z,10.90
2018-12-27T14:22:04.170Z,11.00
2018-12-27T14:24:31.869Z,10.90
2018-12-27T14:27:01.269Z,10.90
2018-12-27T14:29:29.009Z,10.90
2018-12-27T14:31:56.717Z,10.90
2018-12-27T14:34:24.451Z,10.90
2018-12-27T14:36:52.141Z,10.90
2018-12-27T14:39:19.841Z,11.00
2018-12-27T14:41:47.554Z,11.00
2018-12-27T14:44:15.782Z,10.90
2018-12-27T14:46:47.144Z,10.90
2018-12-27T14:49:17.455Z,10.90
2018-12-27T14:51:45.257Z,10.90
2018-12-27T14:54:12.960Z,10.90
2018-12-27T14:57:00.049Z,10.90
2018-12-27T14:59:27.801Z,10.80
2018-12-27T15:01:55.497Z,10.80
2018-12-27T15:04:23.212Z,10.80
2018-12-27T15:06:50.900Z,10.70
2018-12-27T15:09:18.615Z,10.70
2018-12-27T15:11:46.498Z,10.70
2018-12-27T15:14:14.197Z,10.70
2018-12-27T15:16:41.897Z,10.60
2018-12-27T15:19:09.621Z,10.60
2018-12-27T15:21:37.524Z,10.60
2018-12-27T15:24:05.323Z,10.50
2018-12-27T15:26:33.388Z,10.50
2018-12-27T15:29:04.369Z,10.50
2018-12-27T15:31:32.191Z,10.50
2018-12-27T15:34:00.089Z,10.40
2018-12-27T15:36:27.997Z,10.40
2018-12-27T15:38:55.807Z,10.30
2018-12-27T15:41:23.672Z,10.30
2018-12-27T15:43:51.694Z,10.20
2018-12-27T15:46:19.461Z,10.10
2018-12-27T15:48:47.913Z,10.10
2018-12-27T15:51:17.599Z,10.00
2018-12-27T15:53:55.297Z,10.00
2018-12-27T15:56:23.339Z,9.90
2018-12-27T15:58:53.961Z,9.80
2018-12-27T16:01:21.847Z,9.80
2018-12-27T16:03:49.581Z,9.70
2018-12-27T16:06:17.485Z,9.70
2018-12-27T16:08:45.369Z,9.60
2018-12-27T16:11:13.137Z,9.50
2018-12-27T16:13:40.925Z,9.40
2018-12-27T16:16:08.689Z,9.40
2018-12-27T16:18:36.403Z,9.30
2018-12-27T16:21:04.146Z,9.10
2018-12-27T16:23:31.871Z,9.10
2018-12-27T16:25:59.573Z,9.10
2018-12-27T16:28:27.261Z,9.00
2018-12-27T16:30:55.115Z,8.90
2018-12-27T16:33:23.056Z,8.90
2018-12-27T16:35:50.944Z,8.80
2018-12-27T16:38:18.862Z,8.60
2018-12-27T16:40:47.427Z,8.50
2018-12-27T16:43:15.205Z,8.40
2018-12-27T16:45:43.054Z,8.30
2018-12-27T16:48:10.945Z,8.20
2018-12-27T16:50:38.702Z,8.10
2018-12-27T16:53:06.509Z,8.10
2018-12-27T16:55:34.234Z,8.00
2018-12-27T16:58:02.125Z,7.90
2018-12-27T17:00:30.169Z,7.80
2018-12-27T17:02:58.073Z,7.90
2018-12-27T17:05:25.833Z,7.80
2018-12-27T17:07:53.591Z,7.70
2018-12-27T17:10:21.434Z,7.70
2018-12-27T17:12:49.240Z,7.70
2018-12-27T17:15:17.216Z,7.70
2018-12-27T17:17:45.050Z,7.60
2018-12-27T17:20:12.876Z,7.60
2018-12-27T17:22:40.624Z,7.50
2018-12-27T17:25:08.701Z,7.50
2018-12-27T17:27:36.491Z,7.40
2018-12-27T17:30:04.676Z,7.40
2018-12-27T17:32:32.458Z,7.40
2018-12-27T17:35:00.185Z,7.20
2018-12-27T17:37:27.934Z,7.30
2018-12-27T17:39:55.691Z,7.20
2018-12-27T17:42:23.521Z,7.20
2018-12-27T17:44:51.320Z,7.10
2018-12-27T17:47:19.571Z,7.00
2018-12-27T17:49:47.670Z,7.00
2018-12-27T17:52:15.545Z,6.90
2018-12-27T17:54:43.449Z,7.00
2018-12-27T17:57:11.135Z,6.90
2018-12-27T17:59:38.928Z,6.90
2018-12-27T18:02:06.658Z,6.80
2018-12-27T18:04:34.390Z,6.80
2018-12-27T18:07:03.105Z,6.80
2018-12-27T18:09:30.858Z,6.80
2018-12-27T18:11:58.605Z,6.80
2018-12-27T18:14:26.361Z,6.80
2018-12-27T18:16:54.188Z,6.90
2018-12-27T18:19:21.977Z,6.80
2018-12-27T18:21:49.752Z,6.80
2018-12-27T18:24:17.787Z,6.80
2018-12-27T18:26:45.655Z,6.90
2018-12-27T18:29:13.378Z,6.80
2018-12-27T18:31:41.085Z,6.80
2018-12-27T18:34:08.789Z,6.80
2018-12-27T18:36:36.522Z,6.80
2018-12-27T18:39:05.853Z,6.80
2018-12-27T18:41:33.640Z,6.90
2018-12-27T18:44:01.435Z,6.80
2018-12-27T18:46:29.146Z,6.80
2018-12-27T18:48:57.037Z,6.80
2018-12-27T18:51:24.808Z,6.80
2018-12-27T18:53:52.534Z,6.80
2018-12-27T18:56:20.252Z,6.80
2018-12-27T18:58:48.131Z,6.80
2018-12-27T19:01:15.910Z,6.70
2018-12-27T19:03:43.606Z,6.70
2018-12-27T19:06:11.372Z,6.60
2018-12-27T19:08:39.109Z,6.60
2018-12-27T19:11:43.098Z,6.60
2018-12-27T19:14:10.821Z,6.60
2018-12-27T19:16:38.633Z,6.50
2018-12-27T19:19:06.401Z,6.50
2018-12-27T19:22:00.593Z,6.50
2018-12-27T19:24:28.307Z,6.40
2018-12-27T19:26:56.030Z,6.40
2018-12-27T19:29:23.800Z,6.30
2018-12-27T19:31:51.605Z,6.30
2018-12-27T19:34:19.353Z,6.20
2018-12-27T19:36:47.294Z,6.20
2018-12-27T19:39:15.029Z,6.20
2018-12-27T19:41:42.812Z,6.10
2018-12-27T19:44:10.531Z,6.10
2018-12-27T19:46:38.264Z,6.10
2018-12-27T19:49:06.010Z,6.10
2018-12-27T19:51:33.677Z,6.10
2018-12-27T19:54:01.477Z,6.00
2018-12-27T19:56:29.192Z,6.00
2018-12-27T19:58:56.981Z,6.00
2018-12-27T20:01:24.758Z,5.90
2018-12-27T20:03:52.513Z,5.90
2018-12-27T20:06:20.230Z,5.90
2018-12-27T20:08:48.004Z,5.80
2018-12-27T20:11:15.824Z,5.80
2018-12-27T20:13:43.530Z,5.80
2018-12-27T20:16:11.309Z,5.80
2018-12-27T20:18:39.054Z,5.80
2018-12-27T20:21:06.757Z,5.80
2018-12-27T20:23:34.544Z,5.80
2018-12-27T20:26:02.261Z,5.90
2018-12-27T20:28:30.017Z,6.10
2018-12-27T20:30:57.759Z,6.20
2018-12-27T20:33:25.509Z,6.20
2018-12-27T20:35:53.232Z,6.30
2018-12-27T20:38:20.944Z,6.40
2018-12-27T20:40:48.699Z,6.50
2018-12-27T20:43:16.459Z,6.50
2018-12-27T20:45:44.300Z,6.50
2018-12-27T20:48:12.082Z,6.40
2018-12-27T20:50:39.814Z,6.40
2018-12-27T20:53:07.544Z,6.40
2018-12-27T20:55:35.293Z,6.40
2018-12-27T20:58:03.001Z,6.40
2018-12-27T21:00:30.971Z,6.40
2018-12-27T21:02:58.733Z,6.40
2018-12-27T21:05:26.502Z,6.50
2018-12-27T21:07:54.229Z,6.60
2018-12-27T21:10:22.430Z,6.70
2018-12-27T21:12:50.175Z,6.70
2018-12-27T21:15:17.941Z,6.70
2018-12-27T21:17:45.694Z,6.70
2018-12-27T21:20:13.437Z,6.70
2018-12-27T21:22:41.178Z,6.60
2018-12-27T21:25:08.957Z,6.60
2018-12-27T21:27:36.717Z,6.60
2018-12-27T21:30:05.121Z,6.60
2018-12-27T21:32:32.972Z,6.60
2018-12-27T21:35:03.122Z,6.60
2018-12-27T21:37:31.915Z,6.60
2018-12-27T21:40:01.669Z,6.60
2018-12-27T21:42:30.939Z,6.60
2018-12-27T21:44:58.948Z,6.70
2018-12-27T21:47:26.752Z,6.70
2018-12-27T21:49:54.779Z,6.80
2018-12-27T21:52:22.542Z,6.70
2018-12-27T21:54:55.191Z,6.70
2018-12-27T21:57:23.150Z,6.70
2018-12-27T21:59:52.302Z,6.80
2018-12-27T22:02:21.182Z,6.70
2018-12-27T22:04:48.868Z,6.80
2018-12-27T22:07:16.600Z,6.80
2018-12-27T22:09:45.784Z,6.80
2018-12-27T22:12:13.639Z,6.70
2018-12-27T22:14:41.436Z,6.70
2018-12-27T22:17:10.237Z,6.70
2018-12-27T22:19:39.075Z,6.70
2018-12-27T22:22:17.381Z,6.70
2018-12-27T22:24:45.313Z,6.60
2018-12-27T22:27:13.325Z,6.60
2018-12-27T22:29:41.019Z,6.50
2018-12-27T22:32:08.741Z,6.60
2018-12-27T22:34:36.460Z,6.60
2018-12-27T22:37:04.385Z,6.60
2018-12-27T22:39:32.105Z,6.50
2018-12-27T22:41:59.817Z,6.50
2018-12-27T22:44:27.590Z,6.50
2018-12-27T22:46:55.315Z,6.50
2018-12-27T22:49:23.033Z,6.50
2018-12-27T22:51:50.804Z,6.50
2018-12-27T22:54:18.517Z,6.50
2018-12-27T22:56:46.226Z,6.50
2018-12-27T22:59:14.066Z,6.50
2018-12-27T23:01:41.798Z,6.60
2018-12-27T23:04:09.512Z,6.70
2018-12-27T23:06:37.239Z,6.70
2018-12-27T23:09:08.597Z,6.70
2018-12-27T23:11:36.538Z,6.80
2018-12-27T23:14:04.369Z,6.70
2018-12-27T23:16:31.989Z,6.70
2018-12-27T23:18:59.729Z,6.60
2018-12-27T23:21:27.460Z,6.60
2018-12-27T23:23:55.194Z,6.60
2018-12-27T23:26:22.922Z,6.60
2018-12-27T23:28:50.711Z,6.70
2018-12-27T23:31:18.430Z,6.70
2018-12-27T23:33:46.234Z,6.80
2018-12-27T23:36:13.949Z,6.80
2018-12-27T23:38:41.661Z,6.90
2018-12-27T23:41:09.375Z,7.00
2018-12-27T23:43:37.209Z,7.10
2018-12-27T23:46:04.908Z,7.10
2018-12-27T23:48:32.632Z,7.10
2018-12-27T23:51:00.389Z,7.20
2018-12-27T23:53:28.102Z,7.20
2018-12-27T23:55:55.802Z,7.20
2018-12-27T23:58:23.573Z,7.20
